PSFLA SBSP-SBRJ
Flight info
| Callsign | PSFLA |
|---|---|
| Flight time | 1h 22m |
| Altitude | 7000 |
| Route | NIBRU Z11 KEVUN |
| Aircraft | S22T/L-SDGRY/S |
Departure
| Time | 2026-05-08 00:05 |
|---|---|
| Airport | Congonhas–Deputado Freitas Nobre Airport (SBSP) |
Arrival
| Time | 2026-05-08 01:28 |
|---|---|
| Airport | Santos Dumont Airport (SBRJ) |
| Time | Latitude | Longitude | Altitude | Speed | Heading |
|---|---|---|---|---|---|
| 2026-05-07 23:48 | -23.62415 | -46.65419 | 2595 ft | 0 kts | 0° |
| 2026-05-07 23:56 | -23.62412 | -46.65419 | 2595 ft | 0 kts | 0° |
| 2026-05-07 23:56 | -23.62411 | -46.65419 | 2595 ft | 0 kts | 0° |
| 2026-05-07 23:56 | -23.62400 | -46.65423 | 2592 ft | 1 kts | 302° |
| 2026-05-07 23:57 | -23.62403 | -46.65435 | 2587 ft | 5 kts | 229° |
| 2026-05-07 23:57 | -23.62415 | -46.65454 | 2595 ft | 1 kts | 239° |
| 2026-05-07 23:57 | -23.62446 | -46.65453 | 2589 ft | 11 kts | 143° |
| 2026-05-07 23:57 | -23.62517 | -46.65403 | 2594 ft | 13 kts | 148° |
| 2026-05-07 23:58 | -23.62616 | -46.65334 | 2594 ft | 20 kts | 152° |
| 2026-05-07 23:58 | -23.62742 | -46.65248 | 2594 ft | 21 kts | 145° |
| 2026-05-07 23:58 | -23.62875 | -46.65156 | 2594 ft | 24 kts | 148° |
| 2026-05-07 23:58 | -23.62991 | -46.65075 | 2594 ft | 15 kts | 148° |
| 2026-05-07 23:59 | -23.63062 | -46.65026 | 2594 ft | 12 kts | 146° |
| 2026-05-07 23:59 | -23.63101 | -46.65000 | 2595 ft | 0 kts | 168° |
| 2026-05-08 00:04 | -23.63111 | -46.65004 | 2566 ft | 7 kts | 231° |
| 2026-05-08 00:04 | -23.63115 | -46.65081 | 2591 ft | 15 kts | 331° |
| 2026-05-08 00:04 | -23.63010 | -46.65155 | 2586 ft | 35 kts | 328° |
| 2026-05-08 00:04 | -23.62636 | -46.65416 | 2604 ft | 85 kts | 326° |
| 2026-05-08 00:05 | -23.62123 | -46.65815 | 2806 ft | 95 kts | 327° |
| 2026-05-08 00:05 | -23.61558 | -46.66271 | 3103 ft | 104 kts | 327° |
| 2026-05-08 00:05 | -23.60959 | -46.66764 | 3419 ft | 108 kts | 326° |
| 2026-05-08 00:05 | -23.60356 | -46.67177 | 3838 ft | 98 kts | 340° |
| 2026-05-08 00:06 | -23.59706 | -46.67221 | 4246 ft | 91 kts | 5° |
| 2026-05-08 00:06 | -23.59130 | -46.66951 | 4587 ft | 95 kts | 27° |
| 2026-05-08 00:06 | -23.58706 | -46.66356 | 4949 ft | 105 kts | 54° |
| 2026-05-08 00:06 | -23.58623 | -46.65526 | 5264 ft | 120 kts | 90° |
| 2026-05-08 00:07 | -23.58894 | -46.64640 | 5593 ft | 123 kts | 97° |
| 2026-05-08 00:07 | -23.59153 | -46.63744 | 5896 ft | 125 kts | 97° |
| 2026-05-08 00:07 | -23.59427 | -46.62841 | 6217 ft | 126 kts | 98° |
| 2026-05-08 00:07 | -23.59701 | -46.61948 | 6554 ft | 125 kts | 98° |
| 2026-05-08 00:08 | -23.59974 | -46.61048 | 6871 ft | 125 kts | 97° |
| 2026-05-08 00:08 | -23.60196 | -46.60108 | 7032 ft | 139 kts | 95° |
| 2026-05-08 00:08 | -23.60473 | -46.59003 | 7048 ft | 160 kts | 98° |
| 2026-05-08 00:08 | -23.60780 | -46.57821 | 7042 ft | 163 kts | 98° |
| 2026-05-08 00:09 | -23.61081 | -46.56619 | 7035 ft | 165 kts | 98° |
| 2026-05-08 00:09 | -23.61535 | -46.55456 | 7035 ft | 172 kts | 122° |
| 2026-05-08 00:09 | -23.62384 | -46.54514 | 7038 ft | 175 kts | 133° |
| 2026-05-08 00:09 | -23.63260 | -46.53589 | 7035 ft | 176 kts | 132° |
| 2026-05-08 00:10 | -23.64135 | -46.52659 | 7033 ft | 176 kts | 132° |
| 2026-05-08 00:10 | -23.65017 | -46.51725 | 7025 ft | 176 kts | 133° |
| 2026-05-08 00:10 | -23.65896 | -46.50794 | 7023 ft | 176 kts | 133° |
| 2026-05-08 00:10 | -23.66775 | -46.49862 | 7013 ft | 176 kts | 133° |
| 2026-05-08 00:11 | -23.67646 | -46.48940 | 7015 ft | 178 kts | 133° |
| 2026-05-08 00:11 | -23.68532 | -46.48002 | 7013 ft | 177 kts | 133° |
| 2026-05-08 00:11 | -23.69428 | -46.47052 | 7006 ft | 177 kts | 133° |
| 2026-05-08 00:11 | -23.70299 | -46.46129 | 6994 ft | 177 kts | 133° |
| 2026-05-08 00:12 | -23.71021 | -46.45066 | 6982 ft | 172 kts | 107° |
| 2026-05-08 00:12 | -23.71269 | -46.43829 | 6980 ft | 165 kts | 83° |
| 2026-05-08 00:12 | -23.71130 | -46.42619 | 6977 ft | 160 kts | 72° |
| 2026-05-08 00:12 | -23.70961 | -46.41419 | 6974 ft | 160 kts | 73° |
| 2026-05-08 00:13 | -23.70795 | -46.40217 | 6970 ft | 160 kts | 73° |
| 2026-05-08 00:13 | -23.70628 | -46.39016 | 6969 ft | 161 kts | 73° |
| 2026-05-08 00:13 | -23.70455 | -46.37809 | 6964 ft | 161 kts | 73° |
| 2026-05-08 00:13 | -23.70281 | -46.36604 | 6958 ft | 161 kts | 73° |
| 2026-05-08 00:14 | -23.70109 | -46.35396 | 6950 ft | 161 kts | 73° |
| 2026-05-08 00:14 | -23.69933 | -46.34188 | 6943 ft | 161 kts | 72° |
| 2026-05-08 00:14 | -23.69766 | -46.32981 | 6939 ft | 162 kts | 73° |
| 2026-05-08 00:14 | -23.69595 | -46.31773 | 6938 ft | 162 kts | 73° |
| 2026-05-08 00:15 | -23.69425 | -46.30558 | 6937 ft | 162 kts | 73° |
| 2026-05-08 00:15 | -23.69250 | -46.29343 | 6933 ft | 161 kts | 73° |
| 2026-05-08 00:15 | -23.69076 | -46.28146 | 6926 ft | 159 kts | 72° |
| 2026-05-08 00:15 | -23.68903 | -46.26956 | 6927 ft | 160 kts | 73° |
| 2026-05-08 00:16 | -23.68735 | -46.25760 | 6927 ft | 160 kts | 72° |
| 2026-05-08 00:16 | -23.68564 | -46.24558 | 6928 ft | 161 kts | 73° |
| 2026-05-08 00:16 | -23.68391 | -46.23350 | 6928 ft | 161 kts | 73° |
| 2026-05-08 00:16 | -23.68217 | -46.22140 | 6926 ft | 161 kts | 75° |
| 2026-05-08 00:17 | -23.68046 | -46.20936 | 6927 ft | 161 kts | 72° |
| 2026-05-08 00:17 | -23.67872 | -46.19728 | 6925 ft | 162 kts | 73° |
| 2026-05-08 00:17 | -23.67699 | -46.18516 | 6923 ft | 162 kts | 72° |
| 2026-05-08 00:17 | -23.67524 | -46.17302 | 6922 ft | 163 kts | 74° |
| 2026-05-08 00:18 | -23.67353 | -46.16078 | 6924 ft | 162 kts | 71° |
| 2026-05-08 00:18 | -23.67179 | -46.14897 | 6925 ft | 159 kts | 71° |
| 2026-05-08 00:18 | -23.67007 | -46.13704 | 6925 ft | 159 kts | 72° |
| 2026-05-08 00:18 | -23.66835 | -46.12512 | 6911 ft | 159 kts | 71° |
| 2026-05-08 00:19 | -23.66665 | -46.11324 | 6910 ft | 158 kts | 72° |
| 2026-05-08 00:19 | -23.66497 | -46.10131 | 6908 ft | 159 kts | 72° |
| 2026-05-08 00:19 | -23.66325 | -46.08942 | 6911 ft | 158 kts | 71° |
| 2026-05-08 00:19 | -23.66156 | -46.07766 | 6911 ft | 156 kts | 72° |
| 2026-05-08 00:20 | -23.65987 | -46.06597 | 6912 ft | 156 kts | 71° |
| 2026-05-08 00:20 | -23.65817 | -46.05421 | 6918 ft | 158 kts | 72° |
| 2026-05-08 00:20 | -23.65640 | -46.04223 | 6917 ft | 162 kts | 73° |
| 2026-05-08 00:20 | -23.65470 | -46.02999 | 6914 ft | 164 kts | 72° |
| 2026-05-08 00:21 | -23.65295 | -46.01768 | 6915 ft | 164 kts | 72° |
| 2026-05-08 00:21 | -23.65125 | -46.00548 | 6921 ft | 162 kts | 71° |
| 2026-05-08 00:21 | -23.64945 | -45.99325 | 6925 ft | 164 kts | 71° |
| 2026-05-08 00:21 | -23.64771 | -45.98094 | 6913 ft | 162 kts | 71° |
| 2026-05-08 00:22 | -23.64599 | -45.96889 | 6904 ft | 159 kts | 71° |
| 2026-05-08 00:22 | -23.64424 | -45.95711 | 6916 ft | 156 kts | 71° |
| 2026-05-08 00:22 | -23.64257 | -45.94546 | 6912 ft | 158 kts | 71° |
| 2026-05-08 00:22 | -23.64082 | -45.93361 | 6909 ft | 158 kts | 71° |
| 2026-05-08 00:23 | -23.63912 | -45.92184 | 6915 ft | 158 kts | 72° |
| 2026-05-08 00:23 | -23.63743 | -45.91006 | 6914 ft | 157 kts | 71° |
| 2026-05-08 00:23 | -23.63572 | -45.89829 | 6920 ft | 158 kts | 72° |
| 2026-05-08 00:23 | -23.63400 | -45.88635 | 6917 ft | 159 kts | 72° |
| 2026-05-08 00:24 | -23.63230 | -45.87443 | 6914 ft | 159 kts | 71° |
| 2026-05-08 00:24 | -23.63057 | -45.86253 | 6918 ft | 159 kts | 72° |
| 2026-05-08 00:24 | -23.62888 | -45.85068 | 6916 ft | 157 kts | 71° |
| 2026-05-08 00:24 | -23.62714 | -45.83902 | 6919 ft | 158 kts | 72° |
| 2026-05-08 00:25 | -23.62542 | -45.82716 | 6922 ft | 159 kts | 72° |
| 2026-05-08 00:25 | -23.62368 | -45.81521 | 6924 ft | 160 kts | 71° |
| 2026-05-08 00:25 | -23.62196 | -45.80328 | 6922 ft | 157 kts | 71° |
| 2026-05-08 00:25 | -23.62028 | -45.79155 | 6923 ft | 157 kts | 71° |
| 2026-05-08 00:26 | -23.61859 | -45.77983 | 6929 ft | 157 kts | 72° |
| 2026-05-08 00:26 | -23.61683 | -45.76797 | 6923 ft | 159 kts | 72° |
| 2026-05-08 00:26 | -23.61505 | -45.75593 | 6933 ft | 162 kts | 72° |
| 2026-05-08 00:26 | -23.61331 | -45.74380 | 6929 ft | 161 kts | 71° |
| 2026-05-08 00:27 | -23.61153 | -45.73181 | 6927 ft | 159 kts | 71° |
| 2026-05-08 00:27 | -23.60981 | -45.71997 | 6926 ft | 158 kts | 72° |
| 2026-05-08 00:27 | -23.60810 | -45.70804 | 6932 ft | 161 kts | 71° |
| 2026-05-08 00:27 | -23.60626 | -45.69588 | 6920 ft | 167 kts | 72° |
| 2026-05-08 00:28 | -23.60438 | -45.68310 | 6933 ft | 173 kts | 72° |
| 2026-05-08 00:28 | -23.60250 | -45.66992 | 6930 ft | 178 kts | 73° |
| 2026-05-08 00:28 | -23.60068 | -45.65674 | 6927 ft | 174 kts | 72° |
| 2026-05-08 00:28 | -23.59863 | -45.64376 | 6936 ft | 173 kts | 72° |
| 2026-05-08 00:29 | -23.59735 | -45.63494 | 6925 ft | 174 kts | 73° |
| 2026-05-08 00:29 | -23.59549 | -45.62207 | 6934 ft | 176 kts | 73° |
| 2026-05-08 00:29 | -23.59355 | -45.60881 | 6935 ft | 178 kts | 73° |
| 2026-05-08 00:29 | -23.59163 | -45.59543 | 6936 ft | 179 kts | 72° |
| 2026-05-08 00:30 | -23.58969 | -45.58205 | 6936 ft | 179 kts | 72° |
| 2026-05-08 00:30 | -23.58769 | -45.56871 | 6939 ft | 178 kts | 73° |
| 2026-05-08 00:30 | -23.58574 | -45.55544 | 6928 ft | 174 kts | 75° |
| 2026-05-08 00:30 | -23.58386 | -45.54258 | 6926 ft | 172 kts | 73° |
| 2026-05-08 00:31 | -23.58192 | -45.52966 | 6930 ft | 172 kts | 73° |
| 2026-05-08 00:31 | -23.58003 | -45.51664 | 6937 ft | 176 kts | 73° |
| 2026-05-08 00:31 | -23.57810 | -45.50336 | 6932 ft | 178 kts | 73° |
| 2026-05-08 00:31 | -23.57615 | -45.49005 | 6939 ft | 178 kts | 73° |
| 2026-05-08 00:32 | -23.57420 | -45.47682 | 6923 ft | 175 kts | 73° |
| 2026-05-08 00:32 | -23.57198 | -45.46382 | 6934 ft | 174 kts | 69° |
| 2026-05-08 00:32 | -23.56923 | -45.45116 | 6942 ft | 175 kts | 69° |
| 2026-05-08 00:32 | -23.56657 | -45.43821 | 6939 ft | 175 kts | 70° |
| 2026-05-08 00:33 | -23.56382 | -45.42550 | 6944 ft | 171 kts | 69° |
| 2026-05-08 00:33 | -23.56111 | -45.41287 | 6934 ft | 171 kts | 70° |
| 2026-05-08 00:33 | -23.55843 | -45.40019 | 6941 ft | 171 kts | 69° |
| 2026-05-08 00:33 | -23.55577 | -45.38755 | 6937 ft | 171 kts | 69° |
| 2026-05-08 00:34 | -23.55311 | -45.37492 | 6939 ft | 170 kts | 69° |
| 2026-05-08 00:34 | -23.55036 | -45.36232 | 6945 ft | 173 kts | 69° |
| 2026-05-08 00:34 | -23.54764 | -45.34951 | 6942 ft | 173 kts | 72° |
| 2026-05-08 00:34 | -23.54497 | -45.33658 | 6941 ft | 176 kts | 70° |
| 2026-05-08 00:35 | -23.54218 | -45.32347 | 6946 ft | 178 kts | 70° |
| 2026-05-08 00:35 | -23.53942 | -45.31035 | 6970 ft | 178 kts | 71° |
| 2026-05-08 00:35 | -23.53667 | -45.29713 | 6949 ft | 178 kts | 70° |
| 2026-05-08 00:35 | -23.53381 | -45.28391 | 6938 ft | 180 kts | 69° |
| 2026-05-08 00:36 | -23.53095 | -45.27063 | 6931 ft | 180 kts | 70° |
| 2026-05-08 00:36 | -23.52817 | -45.25745 | 6934 ft | 176 kts | 70° |
| 2026-05-08 00:36 | -23.52506 | -45.24478 | 6929 ft | 171 kts | 63° |
| 2026-05-08 00:36 | -23.52079 | -45.23277 | 6955 ft | 175 kts | 62° |
| 2026-05-08 00:37 | -23.51659 | -45.22023 | 6978 ft | 178 kts | 62° |
| 2026-05-08 00:37 | -23.51245 | -45.20731 | 6957 ft | 180 kts | 64° |
| 2026-05-08 00:37 | -23.50842 | -45.19463 | 6966 ft | 175 kts | 64° |
| 2026-05-08 00:38 | -23.50055 | -45.16983 | 6962 ft | 172 kts | 63° |
| 2026-05-08 00:38 | -23.49665 | -45.15754 | 6959 ft | 170 kts | 63° |
| 2026-05-08 00:38 | -23.49282 | -45.14549 | 6963 ft | 168 kts | 63° |
| 2026-05-08 00:38 | -23.48897 | -45.13349 | 6959 ft | 168 kts | 64° |
| 2026-05-08 00:39 | -23.48520 | -45.12157 | 6972 ft | 168 kts | 63° |
| 2026-05-08 00:39 | -23.48129 | -45.10950 | 6969 ft | 171 kts | 63° |
| 2026-05-08 00:39 | -23.47742 | -45.09722 | 6984 ft | 173 kts | 62° |
| 2026-05-08 00:39 | -23.47357 | -45.08463 | 6962 ft | 175 kts | 64° |
| 2026-05-08 00:40 | -23.46955 | -45.07235 | 6960 ft | 171 kts | 63° |
| 2026-05-08 00:40 | -23.46556 | -45.06020 | 6957 ft | 170 kts | 63° |
| 2026-05-08 00:40 | -23.46167 | -45.04803 | 6955 ft | 170 kts | 63° |
| 2026-05-08 00:40 | -23.45786 | -45.03611 | 6965 ft | 164 kts | 63° |
| 2026-05-08 00:41 | -23.45409 | -45.02430 | 6969 ft | 166 kts | 63° |
| 2026-05-08 00:41 | -23.45028 | -45.01238 | 6970 ft | 168 kts | 63° |
| 2026-05-08 00:41 | -23.44651 | -45.00041 | 6951 ft | 170 kts | 63° |
| 2026-05-08 00:41 | -23.44259 | -44.98828 | 6969 ft | 170 kts | 63° |
| 2026-05-08 00:42 | -23.43873 | -44.97617 | 6969 ft | 169 kts | 63° |
| 2026-05-08 00:42 | -23.43485 | -44.96406 | 6969 ft | 169 kts | 63° |
| 2026-05-08 00:42 | -23.43098 | -44.95196 | 6969 ft | 169 kts | 63° |
| 2026-05-08 00:42 | -23.42711 | -44.93987 | 6968 ft | 169 kts | 63° |
| 2026-05-08 00:43 | -23.42323 | -44.92774 | 6969 ft | 169 kts | 63° |
| 2026-05-08 00:43 | -23.41936 | -44.91564 | 6958 ft | 169 kts | 63° |
| 2026-05-08 00:43 | -23.41553 | -44.90372 | 6958 ft | 169 kts | 63° |
| 2026-05-08 00:43 | -23.41164 | -44.89162 | 6958 ft | 170 kts | 63° |
| 2026-05-08 00:44 | -23.40774 | -44.87944 | 6959 ft | 170 kts | 63° |
| 2026-05-08 00:44 | -23.40384 | -44.86729 | 6958 ft | 170 kts | 63° |
| 2026-05-08 00:44 | -23.39995 | -44.85515 | 6970 ft | 169 kts | 63° |
| 2026-05-08 00:44 | -23.39611 | -44.84309 | 6957 ft | 168 kts | 63° |
| 2026-05-08 00:45 | -23.39222 | -44.83105 | 6957 ft | 169 kts | 63° |
| 2026-05-08 00:45 | -23.38834 | -44.81896 | 6957 ft | 169 kts | 63° |
| 2026-05-08 00:45 | -23.38443 | -44.80682 | 6956 ft | 170 kts | 65° |
| 2026-05-08 00:45 | -23.38058 | -44.79481 | 6955 ft | 170 kts | 65° |
| 2026-05-08 00:46 | -23.37666 | -44.78263 | 6954 ft | 170 kts | 65° |
| 2026-05-08 00:46 | -23.37280 | -44.77054 | 6952 ft | 169 kts | 64° |
| 2026-05-08 00:46 | -23.36897 | -44.75886 | 6946 ft | 162 kts | 64° |
| 2026-05-08 00:46 | -23.36522 | -44.74728 | 6935 ft | 159 kts | 64° |
| 2026-05-08 00:47 | -23.36158 | -44.73586 | 6949 ft | 161 kts | 65° |
| 2026-05-08 00:47 | -23.35787 | -44.72422 | 6965 ft | 165 kts | 64° |
| 2026-05-08 00:47 | -23.35407 | -44.71239 | 6966 ft | 167 kts | 64° |
| 2026-05-08 00:47 | -23.35020 | -44.70037 | 6965 ft | 169 kts | 65° |
| 2026-05-08 00:48 | -23.34630 | -44.68826 | 6956 ft | 170 kts | 65° |
| 2026-05-08 00:48 | -23.34239 | -44.67610 | 6952 ft | 170 kts | 64° |
| 2026-05-08 00:48 | -23.33845 | -44.66390 | 6954 ft | 171 kts | 64° |
| 2026-05-08 00:48 | -23.33447 | -44.65158 | 6949 ft | 174 kts | 65° |
| 2026-05-08 00:49 | -23.33050 | -44.63922 | 6950 ft | 172 kts | 64° |
| 2026-05-08 00:49 | -23.32657 | -44.62701 | 6950 ft | 171 kts | 64° |
| 2026-05-08 00:49 | -23.32258 | -44.61476 | 6937 ft | 173 kts | 66° |
| 2026-05-08 00:49 | -23.31864 | -44.60255 | 6933 ft | 173 kts | 66° |
| 2026-05-08 00:50 | -23.31476 | -44.59041 | 6954 ft | 164 kts | 66° |
| 2026-05-08 00:50 | -23.31092 | -44.57848 | 6951 ft | 169 kts | 65° |
| 2026-05-08 00:50 | -23.30693 | -44.56636 | 6950 ft | 171 kts | 65° |
| 2026-05-08 00:50 | -23.30300 | -44.55422 | 6949 ft | 170 kts | 66° |
| 2026-05-08 00:51 | -23.29907 | -44.54202 | 6944 ft | 170 kts | 65° |
| 2026-05-08 00:51 | -23.29517 | -44.52987 | 6941 ft | 170 kts | 65° |
| 2026-05-08 00:51 | -23.29120 | -44.51770 | 6925 ft | 170 kts | 65° |
| 2026-05-08 00:51 | -23.28734 | -44.50566 | 6940 ft | 169 kts | 66° |
| 2026-05-08 00:52 | -23.28339 | -44.49355 | 6943 ft | 171 kts | 66° |
| 2026-05-08 00:52 | -23.27945 | -44.48136 | 6944 ft | 171 kts | 66° |
| 2026-05-08 00:52 | -23.27549 | -44.46914 | 6945 ft | 172 kts | 66° |
| 2026-05-08 00:52 | -23.27156 | -44.45700 | 6940 ft | 172 kts | 66° |
| 2026-05-08 00:53 | -23.26757 | -44.44469 | 6938 ft | 173 kts | 66° |
| 2026-05-08 00:53 | -23.26357 | -44.43235 | 6938 ft | 173 kts | 66° |
| 2026-05-08 00:53 | -23.25958 | -44.42003 | 6937 ft | 173 kts | 64° |
| 2026-05-08 00:53 | -23.25557 | -44.40767 | 6936 ft | 173 kts | 64° |
| 2026-05-08 00:54 | -23.25157 | -44.39533 | 6941 ft | 173 kts | 65° |
| 2026-05-08 00:54 | -23.24757 | -44.38299 | 6940 ft | 173 kts | 65° |
| 2026-05-08 00:54 | -23.24359 | -44.37076 | 6932 ft | 174 kts | 66° |
| 2026-05-08 00:54 | -23.23956 | -44.35838 | 6933 ft | 174 kts | 65° |
| 2026-05-08 00:55 | -23.23554 | -44.34597 | 6933 ft | 174 kts | 64° |
| 2026-05-08 00:55 | -23.23153 | -44.33360 | 6937 ft | 173 kts | 65° |
| 2026-05-08 00:55 | -23.22750 | -44.32123 | 6941 ft | 173 kts | 65° |
| 2026-05-08 00:55 | -23.22349 | -44.30889 | 6941 ft | 173 kts | 65° |
| 2026-05-08 00:56 | -23.21947 | -44.29657 | 6938 ft | 173 kts | 65° |
| 2026-05-08 00:56 | -23.21547 | -44.28424 | 6938 ft | 173 kts | 65° |
| 2026-05-08 00:56 | -23.21146 | -44.27193 | 6938 ft | 173 kts | 65° |
| 2026-05-08 00:56 | -23.20744 | -44.25959 | 6938 ft | 173 kts | 65° |
| 2026-05-08 00:57 | -23.20344 | -44.24731 | 6937 ft | 172 kts | 65° |
| 2026-05-08 00:57 | -23.19945 | -44.23503 | 6941 ft | 172 kts | 66° |
| 2026-05-08 00:57 | -23.19545 | -44.22268 | 6934 ft | 174 kts | 64° |
| 2026-05-08 00:57 | -23.19140 | -44.21033 | 6917 ft | 171 kts | 64° |
| 2026-05-08 00:58 | -23.18735 | -44.19844 | 6937 ft | 168 kts | 63° |
| 2026-05-08 00:58 | -23.18345 | -44.18634 | 6943 ft | 171 kts | 65° |
| 2026-05-08 00:58 | -23.17961 | -44.17407 | 6939 ft | 172 kts | 64° |
| 2026-05-08 00:58 | -23.17564 | -44.16185 | 6938 ft | 171 kts | 64° |
| 2026-05-08 00:59 | -23.17170 | -44.14987 | 6937 ft | 171 kts | 64° |
| 2026-05-08 00:59 | -23.16772 | -44.13765 | 6932 ft | 172 kts | 64° |
| 2026-05-08 00:59 | -23.16370 | -44.12542 | 6933 ft | 171 kts | 64° |
| 2026-05-08 00:59 | -23.15968 | -44.11316 | 6936 ft | 174 kts | 64° |
| 2026-05-08 01:00 | -23.15564 | -44.10077 | 6935 ft | 174 kts | 64° |
| 2026-05-08 01:00 | -23.15160 | -44.08841 | 6935 ft | 173 kts | 64° |
| 2026-05-08 01:00 | -23.14758 | -44.07610 | 6934 ft | 173 kts | 64° |
| 2026-05-08 01:00 | -23.14354 | -44.06382 | 6931 ft | 173 kts | 64° |
| 2026-05-08 01:01 | -23.13951 | -44.05147 | 6940 ft | 173 kts | 64° |
| 2026-05-08 01:01 | -23.13548 | -44.03915 | 6940 ft | 173 kts | 64° |
| 2026-05-08 01:01 | -23.13146 | -44.02689 | 6935 ft | 172 kts | 63° |
| 2026-05-08 01:01 | -23.12745 | -44.01463 | 6936 ft | 172 kts | 64° |
| 2026-05-08 01:02 | -23.12344 | -44.00241 | 6935 ft | 171 kts | 64° |
| 2026-05-08 01:02 | -23.11945 | -43.99021 | 6935 ft | 171 kts | 64° |
| 2026-05-08 01:02 | -23.11547 | -43.97806 | 6936 ft | 170 kts | 63° |
| 2026-05-08 01:02 | -23.11150 | -43.96596 | 6937 ft | 170 kts | 63° |
| 2026-05-08 01:03 | -23.10759 | -43.95402 | 6937 ft | 169 kts | 63° |
| 2026-05-08 01:03 | -23.10364 | -43.94200 | 6937 ft | 169 kts | 63° |
| 2026-05-08 01:03 | -23.09968 | -43.92995 | 6937 ft | 169 kts | 63° |
| 2026-05-08 01:03 | -23.09572 | -43.91789 | 6936 ft | 169 kts | 63° |
| 2026-05-08 01:04 | -23.09176 | -43.90581 | 6939 ft | 169 kts | 63° |
| 2026-05-08 01:04 | -23.08780 | -43.89378 | 6939 ft | 169 kts | 63° |
| 2026-05-08 01:04 | -23.08385 | -43.88177 | 6939 ft | 169 kts | 63° |
| 2026-05-08 01:04 | -23.07991 | -43.86975 | 6939 ft | 169 kts | 63° |
| 2026-05-08 01:05 | -23.07594 | -43.85771 | 6938 ft | 169 kts | 63° |
| 2026-05-08 01:05 | -23.07491 | -43.85454 | 6938 ft | 169 kts | 63° |
| 2026-05-08 01:05 | -23.07387 | -43.85138 | 6938 ft | 169 kts | 63° |
| 2026-05-08 01:05 | -23.06993 | -43.83941 | 6936 ft | 168 kts | 63° |
| 2026-05-08 01:06 | -23.06602 | -43.82752 | 6939 ft | 167 kts | 64° |
| 2026-05-08 01:06 | -23.06208 | -43.81558 | 6940 ft | 168 kts | 64° |
| 2026-05-08 01:06 | -23.05814 | -43.80360 | 6940 ft | 169 kts | 64° |
| 2026-05-08 01:06 | -23.05418 | -43.79158 | 6941 ft | 169 kts | 64° |
| 2026-05-08 01:07 | -23.05022 | -43.77956 | 6943 ft | 169 kts | 64° |
| 2026-05-08 01:07 | -23.04631 | -43.76763 | 6990 ft | 166 kts | 63° |
| 2026-05-08 01:07 | -23.04245 | -43.75595 | 6996 ft | 167 kts | 63° |
| 2026-05-08 01:07 | -23.03847 | -43.74392 | 6995 ft | 168 kts | 64° |
| 2026-05-08 01:08 | -23.03459 | -43.73213 | 6995 ft | 168 kts | 64° |
| 2026-05-08 01:08 | -23.03063 | -43.72013 | 6998 ft | 169 kts | 64° |
| 2026-05-08 01:08 | -23.02668 | -43.70813 | 6997 ft | 169 kts | 63° |
| 2026-05-08 01:08 | -23.02272 | -43.69611 | 6998 ft | 169 kts | 64° |
| 2026-05-08 01:09 | -23.01874 | -43.68410 | 6998 ft | 169 kts | 64° |
| 2026-05-08 01:09 | -23.01476 | -43.67203 | 6999 ft | 170 kts | 64° |
| 2026-05-08 01:09 | -23.01078 | -43.65999 | 6999 ft | 170 kts | 64° |
| 2026-05-08 01:09 | -23.00681 | -43.64794 | 6998 ft | 169 kts | 64° |
| 2026-05-08 01:10 | -23.00283 | -43.63589 | 6999 ft | 169 kts | 63° |
| 2026-05-08 01:10 | -22.99879 | -43.62404 | 6995 ft | 168 kts | 59° |
| 2026-05-08 01:10 | -22.99368 | -43.61250 | 6997 ft | 168 kts | 56° |
| 2026-05-08 01:10 | -22.98868 | -43.60124 | 6995 ft | 168 kts | 57° |
| 2026-05-08 01:11 | -22.98364 | -43.58979 | 6996 ft | 168 kts | 57° |
| 2026-05-08 01:11 | -22.97859 | -43.57829 | 6999 ft | 169 kts | 57° |
| 2026-05-08 01:11 | -22.97351 | -43.56672 | 6999 ft | 170 kts | 57° |
| 2026-05-08 01:11 | -22.96843 | -43.55514 | 6988 ft | 170 kts | 58° |
| 2026-05-08 01:12 | -22.96345 | -43.54373 | 6978 ft | 165 kts | 57° |
| 2026-05-08 01:12 | -22.95838 | -43.53239 | 6920 ft | 170 kts | 57° |
| 2026-05-08 01:12 | -22.95324 | -43.52067 | 6851 ft | 173 kts | 57° |
| 2026-05-08 01:12 | -22.94806 | -43.50881 | 6789 ft | 175 kts | 57° |
| 2026-05-08 01:13 | -22.94289 | -43.49681 | 6748 ft | 177 kts | 59° |
| 2026-05-08 01:13 | -22.93768 | -43.48478 | 6642 ft | 177 kts | 59° |
| 2026-05-08 01:13 | -22.93279 | -43.47265 | 6510 ft | 172 kts | 62° |
| 2026-05-08 01:13 | -22.92792 | -43.46082 | 6389 ft | 172 kts | 57° |
| 2026-05-08 01:14 | -22.92294 | -43.44913 | 6263 ft | 171 kts | 57° |
| 2026-05-08 01:14 | -22.91785 | -43.43735 | 6145 ft | 172 kts | 58° |
| 2026-05-08 01:14 | -22.91292 | -43.42576 | 6017 ft | 170 kts | 59° |
| 2026-05-08 01:14 | -22.90804 | -43.41415 | 5886 ft | 165 kts | 58° |
| 2026-05-08 01:15 | -22.90351 | -43.40328 | 5756 ft | 152 kts | 58° |
| 2026-05-08 01:15 | -22.89918 | -43.39305 | 5619 ft | 145 kts | 58° |
| 2026-05-08 01:15 | -22.89518 | -43.38368 | 5468 ft | 128 kts | 57° |
| 2026-05-08 01:15 | -22.89153 | -43.37517 | 5336 ft | 122 kts | 57° |
| 2026-05-08 01:16 | -22.88926 | -43.36965 | 5237 ft | 119 kts | 56° |
| 2026-05-08 01:16 | -22.88573 | -43.36157 | 5111 ft | 119 kts | 56° |
| 2026-05-08 01:16 | -22.88305 | -43.35320 | 4979 ft | 121 kts | 75° |
| 2026-05-08 01:16 | -22.88364 | -43.34393 | 4853 ft | 122 kts | 88° |
| 2026-05-08 01:17 | -22.88444 | -43.33491 | 4721 ft | 119 kts | 86° |
| 2026-05-08 01:17 | -22.88522 | -43.32541 | 4614 ft | 134 kts | 87° |
| 2026-05-08 01:17 | -22.88619 | -43.31497 | 4517 ft | 144 kts | 88° |
| 2026-05-08 01:17 | -22.88725 | -43.30392 | 4421 ft | 150 kts | 89° |
| 2026-05-08 01:18 | -22.88834 | -43.29249 | 4316 ft | 154 kts | 89° |
| 2026-05-08 01:18 | -22.88943 | -43.28080 | 4196 ft | 157 kts | 89° |
| 2026-05-08 01:18 | -22.89055 | -43.26898 | 4083 ft | 158 kts | 91° |
| 2026-05-08 01:18 | -22.89423 | -43.25765 | 3959 ft | 160 kts | 113° |
| 2026-05-08 01:19 | -22.89920 | -43.24699 | 3793 ft | 157 kts | 110° |
| 2026-05-08 01:19 | -22.90388 | -43.23646 | 3620 ft | 151 kts | 111° |
| 2026-05-08 01:19 | -22.90836 | -43.22640 | 3442 ft | 147 kts | 111° |
| 2026-05-08 01:19 | -22.91278 | -43.21646 | 3231 ft | 147 kts | 111° |
| 2026-05-08 01:20 | -22.91760 | -43.20660 | 2981 ft | 151 kts | 121° |
| 2026-05-08 01:20 | -22.92474 | -43.19834 | 2732 ft | 149 kts | 132° |
| 2026-05-08 01:20 | -22.93191 | -43.19039 | 2406 ft | 151 kts | 131° |
| 2026-05-08 01:20 | -22.93880 | -43.18161 | 1986 ft | 156 kts | 116° |
| 2026-05-08 01:21 | -22.94217 | -43.17091 | 1709 ft | 142 kts | 87° |
| 2026-05-08 01:21 | -22.93771 | -43.16253 | 1361 ft | 133 kts | 18° |
| 2026-05-08 01:21 | -22.92727 | -43.16236 | 417 ft | 170 kts | 3° |
| 2026-05-08 01:21 | -22.91546 | -43.16261 | 32 ft | 163 kts | 358° |
| 2026-05-08 01:22 | -22.90516 | -43.16326 | 152 ft | 140 kts | 356° |
| 2026-05-08 01:22 | -22.89574 | -43.16407 | 521 ft | 133 kts | 355° |
| 2026-05-08 01:22 | -22.88656 | -43.16498 | 791 ft | 133 kts | 355° |
| 2026-05-08 01:22 | -22.87714 | -43.16597 | 971 ft | 138 kts | 355° |
| 2026-05-08 01:23 | -22.86779 | -43.16706 | 1123 ft | 132 kts | 354° |
| 2026-05-08 01:23 | -22.85864 | -43.16823 | 1304 ft | 134 kts | 354° |
| 2026-05-08 01:23 | -22.84937 | -43.16893 | 1564 ft | 131 kts | 1° |
| 2026-05-08 01:23 | -22.84035 | -43.16850 | 1840 ft | 128 kts | 3° |
| 2026-05-08 01:24 | -22.83164 | -43.16971 | 2080 ft | 129 kts | 348° |
| 2026-05-08 01:24 | -22.82268 | -43.16883 | 2217 ft | 137 kts | 28° |
| 2026-05-08 01:24 | -22.81656 | -43.16102 | 2328 ft | 143 kts | 69° |
| 2026-05-08 01:24 | -22.81714 | -43.15028 | 2362 ft | 146 kts | 114° |
| 2026-05-08 01:25 | -22.82473 | -43.14358 | 2335 ft | 144 kts | 165° |
| 2026-05-08 01:25 | -22.83473 | -43.14485 | 2094 ft | 154 kts | 209° |
| 2026-05-08 01:25 | -22.84323 | -43.15208 | 1819 ft | 155 kts | 220° |
| 2026-05-08 01:25 | -22.85171 | -43.15906 | 1600 ft | 147 kts | 211° |
| 2026-05-08 01:26 | -22.86038 | -43.16376 | 1495 ft | 133 kts | 195° |
| 2026-05-08 01:26 | -22.86922 | -43.16514 | 1379 ft | 123 kts | 178° |
| 2026-05-08 01:26 | -22.87742 | -43.16492 | 1209 ft | 114 kts | 174° |
| 2026-05-08 01:26 | -22.88485 | -43.16435 | 898 ft | 104 kts | 174° |
| 2026-05-08 01:27 | -22.89201 | -43.16399 | 563 ft | 100 kts | 177° |
| 2026-05-08 01:27 | -22.89872 | -43.16353 | 249 ft | 95 kts | 177° |
| 2026-05-08 01:27 | -22.90501 | -43.16313 | 41 ft | 84 kts | 176° |
| 2026-05-08 01:27 | -22.91031 | -43.16281 | 21 ft | 68 kts | 176° |
| 2026-05-08 01:28 | -22.91342 | -43.16286 | 18 ft | 20 kts | 251° |
| 2026-05-08 01:28 | -22.91348 | -43.16370 | 20 ft | 7 kts | 269° |
| 2026-05-08 01:28 | -22.91349 | -43.16423 | 24 ft | 8 kts | 269° |
| 2026-05-08 01:28 | -22.91350 | -43.16491 | 25 ft | 7 kts | 287° |
| 2026-05-08 01:29 | -22.91280 | -43.16507 | 27 ft | 14 kts | 356° |
| 2026-05-08 01:29 | -22.91170 | -43.16515 | 26 ft | 11 kts | 357° |
| 2026-05-08 01:29 | -22.91081 | -43.16532 | 25 ft | 16 kts | 351° |
| 2026-05-08 01:29 | -22.90975 | -43.16543 | 25 ft | 15 kts | 355° |
| 2026-05-08 01:30 | -22.90885 | -43.16567 | 25 ft | 12 kts | 270° |
| 2026-05-08 01:30 | -22.90889 | -43.16637 | 25 ft | 0 kts | 265° |